TimeAKST,TemperatureF,Dew PointF,Humidity,Sea Level PressureIn,VisibilityMPH,Wind Direction,Wind SpeedMPH,Gust SpeedMPH,PrecipitationIn,Events,Conditions,WindDirDegrees,DateUTC
12:16 AM,33.8,30.2,87,30.15,10.0,SE,4.6,-,N/A,,Overcast,140,2012-11-25 09:16:00
12:36 AM,33.8,30.2,87,30.16,10.0,SE,3.5,-,N/A,,Overcast,140,2012-11-25 09:36:00
12:56 AM,33.8,30.2,87,30.17,10.0,Calm,Calm,-,N/A,,Overcast,0,2012-11-25 09:56:00
1:16 AM,35.6,30.2,81,30.18,10.0,SE,5.8,-,N/A,,Overcast,140,2012-11-25 10:16:00
1:36 AM,35.6,30.2,81,30.19,10.0,SE,3.5,-,N/A,,Overcast,140,2012-11-25 10:36:00
1:56 AM,33.8,30.2,87,30.19,10.0,Calm,Calm,-,N/A,,Overcast,0,2012-11-25 10:56:00
2:16 AM,37.4,33.8,87,30.19,10.0,East,8.1,-,N/A,,Overcast,100,2012-11-25 11:16:00
2:36 AM,37.4,33.8,87,30.19,10.0,ESE,8.1,-,N/A,,Overcast,110,2012-11-25 11:36:00
2:56 AM,37.4,33.8,87,30.20,10.0,East,8.1,-,N/A,,Overcast,90,2012-11-25 11:56:00
3:16 AM,37.4,33.8,87,30.19,10.0,NNE,4.6,-,N/A,,Overcast,30,2012-11-25 12:16:00
3:36 AM,33.8,28.4,81,30.20,10.0,Calm,Calm,-,N/A,,Overcast,0,2012-11-25 12:36:00
3:56 AM,33.8,30.2,87,30.20,10.0,WNW,4.6,-,N/A,,Overcast,300,2012-11-25 12:56:00
4:16 AM,33.8,28.4,81,30.20,10.0,NW,3.5,-,N/A,,Overcast,320,2012-11-25 13:16:00
4:36 AM,33.8,28.4,81,30.20,10.0,NW,5.8,-,N/A,,Overcast,320,2012-11-25 13:36:00
4:56 AM,35.6,30.2,81,30.20,10.0,Calm,Calm,-,N/A,,Overcast,0,2012-11-25 13:56:00
5:16 AM,35.6,30.2,81,30.21,10.0,Calm,Calm,-,N/A,,Overcast,0,2012-11-25 14:16:00
5:36 AM,33.8,30.2,87,30.20,10.0,North,3.5,-,N/A,,Overcast,10,2012-11-25 14:36:00
5:56 AM,35.6,32.0,87,30.20,10.0,NE,3.5,-,N/A,,Overcast,50,2012-11-25 14:56:00
6:16 AM,35.6,30.2,81,30.20,10.0,East,3.5,-,N/A,,Overcast,100,2012-11-25 15:16:00
6:36 AM,37.4,33.8,87,30.20,10.0,Calm,Calm,-,N/A,,Overcast,0,2012-11-25 15:36:00
6:56 AM,35.6,32.0,87,30.21,10.0,NW,5.8,-,N/A,,Overcast,310,2012-11-25 15:56:00
7:16 AM,35.6,32.0,87,30.21,10.0,ESE,6.9,-,N/A,,Overcast,110,2012-11-25 16:16:00
7:36 AM,37.4,33.8,87,30.21,10.0,ESE,5.8,-,N/A,,Overcast,120,2012-11-25 16:36:00
7:56 AM,37.4,33.8,87,30.21,7.0,ESE,4.6,-,N/A,,Overcast,120,2012-11-25 16:56:00
8:16 AM,37.4,33.8,87,30.21,7.0,East,10.4,-,N/A,,Overcast,100,2012-11-25 17:16:00
8:36 AM,37.4,33.8,87,30.21,7.0,SE,4.6,-,N/A,,Overcast,140,2012-11-25 17:36:00
8:56 AM,37.4,33.8,87,30.21,7.0,SE,10.4,-,N/A,,Overcast,130,2012-11-25 17:56:00
9:16 AM,37.4,33.8,87,30.21,7.0,ESE,10.4,-,N/A,,Overcast,110,2012-11-25 18:16:00
9:36 AM,37.4,33.8,87,30.22,7.0,ESE,10.4,16.1,N/A,,Overcast,120,2012-11-25 18:36:00
9:56 AM,37.4,33.8,87,30.21,7.0,ESE,11.5,-,N/A,,Overcast,110,2012-11-25 18:56:00
10:16 AM,37.4,33.8,87,30.22,7.0,SE,5.8,-,N/A,,Overcast,140,2012-11-25 19:16:00
10:36 AM,37.4,33.8,87,30.22,7.0,East,5.8,-,N/A,,Overcast,100,2012-11-25 19:36:00
10:56 AM,37.4,33.8,87,30.22,7.0,ENE,3.5,-,N/A,,Overcast,60,2012-11-25 19:56:00
11:16 AM,37.4,33.8,87,30.23,7.0,ENE,3.5,-,N/A,,Overcast,60,2012-11-25 20:16:00
11:36 AM,37.4,33.8,87,30.22,7.0,East,5.8,-,N/A,,Overcast,80,2012-11-25 20:36:00
11:56 AM,37.4,33.8,87,30.22,7.0,ESE,5.8,-,N/A,,Overcast,110,2012-11-25 20:56:00
12:16 PM,37.4,33.8,87,30.22,7.0,ESE,5.8,-,N/A,,Overcast,110,2012-11-25 21:16:00
12:36 PM,37.4,33.8,87,30.22,7.0,East,5.8,-,N/A,,Overcast,90,2012-11-25 21:36:00
12:56 PM,37.4,33.8,87,30.23,7.0,Calm,Calm,-,N/A,,Overcast,0,2012-11-25 21:56:00
1:16 PM,35.6,32.0,87,30.23,7.0,Calm,Calm,-,N/A,,Overcast,0,2012-11-25 22:16:00
1:36 PM,37.4,33.8,87,30.22,7.0,ENE,4.6,-,N/A,,Overcast,70,2012-11-25 22:36:00
1:56 PM,37.4,33.8,87,30.22,10.0,East,5.8,-,N/A,,Overcast,100,2012-11-25 22:56:00
2:16 PM,37.4,33.8,87,30.22,10.0,East,5.8,-,N/A,,Overcast,90,2012-11-25 23:16:00
2:36 PM,37.4,33.8,87,30.22,10.0,East,6.9,-,N/A,,Overcast,80,2012-11-25 23:36:00
2:56 PM,37.4,33.8,87,30.22,10.0,East,6.9,-,N/A,,Overcast,80,2012-11-25 23:56:00
3:16 PM,35.6,32.0,87,30.22,10.0,North,3.5,-,N/A,,Overcast,350,2012-11-26 00:16:00
3:36 PM,35.6,30.2,81,30.22,10.0,Calm,Calm,-,N/A,,Overcast,0,2012-11-26 00:36:00
3:56 PM,37.4,33.8,87,30.22,10.0,East,6.9,-,N/A,,Overcast,100,2012-11-26 00:56:00
4:16 PM,37.4,33.8,87,30.22,10.0,East,5.8,-,N/A,,Overcast,100,2012-11-26 01:16:00
4:36 PM,37.4,33.8,87,30.22,10.0,East,5.8,-,N/A,,Overcast,100,2012-11-26 01:36:00
4:56 PM,37.4,33.8,87,30.22,10.0,NE,3.5,-,N/A,,Overcast,40,2012-11-26 01:56:00
5:16 PM,35.6,32.0,87,30.22,10.0,NW,3.5,-,N/A,,Overcast,310,2012-11-26 02:16:00
5:36 PM,33.8,30.2,87,30.22,10.0,Calm,Calm,-,N/A,,Overcast,0,2012-11-26 02:36:00
5:56 PM,35.6,33.8,93,30.21,10.0,ESE,5.8,-,N/A,,Overcast,110,2012-11-26 02:56:00
6:16 PM,37.4,33.8,87,30.22,10.0,East,5.8,-,N/A,,Overcast,90,2012-11-26 03:16:00
6:36 PM,37.4,33.8,87,30.22,10.0,East,4.6,-,N/A,,Overcast,100,2012-11-26 03:36:00
6:56 PM,37.4,33.8,87,30.22,10.0,East,5.8,-,N/A,,Overcast,90,2012-11-26 03:56:00
7:16 PM,37.4,33.8,87,30.23,10.0,ESE,6.9,-,N/A,,Overcast,110,2012-11-26 04:16:00
7:36 PM,37.4,33.8,87,30.23,10.0,East,6.9,-,N/A,,Overcast,90,2012-11-26 04:36:00
7:56 PM,37.4,33.8,87,30.23,10.0,East,5.8,-,N/A,,Overcast,100,2012-11-26 04:56:00
8:16 PM,37.4,33.8,87,30.24,10.0,East,6.9,-,N/A,,Overcast,80,2012-11-26 05:16:00
8:36 PM,37.4,33.8,87,30.24,10.0,East,5.8,-,N/A,,Overcast,100,2012-11-26 05:36:00
8:56 PM,37.4,33.8,87,30.24,10.0,East,6.9,-,N/A,,Overcast,90,2012-11-26 05:56:00
9:16 PM,37.4,33.8,87,30.24,10.0,East,6.9,-,N/A,,Overcast,100,2012-11-26 06:16:00
9:36 PM,37.4,33.8,87,30.24,10.0,East,6.9,-,N/A,,Overcast,100,2012-11-26 06:36:00
9:56 PM,35.6,30.2,81,30.25,10.0,Calm,Calm,-,N/A,,Mostly Cloudy,0,2012-11-26 06:56:00
10:16 PM,35.6,32.0,87,30.25,10.0,East,6.9,-,N/A,,Mostly Cloudy,90,2012-11-26 07:16:00
10:36 PM,35.6,30.2,81,30.25,10.0,Calm,Calm,-,N/A,,Mostly Cloudy,0,2012-11-26 07:36:00
10:56 PM,35.6,30.2,81,30.25,10.0,NW,3.5,-,N/A,,Mostly Cloudy,320,2012-11-26 07:56:00
11:16 PM,35.6,30.2,81,30.25,10.0,NNW,3.5,-,N/A,,Overcast,330,2012-11-26 08:16:00
11:36 PM,35.6,30.2,81,30.26,10.0,Calm,Calm,-,N/A,,Overcast,0,2012-11-26 08:36:00
11:56 PM,35.6,30.2,81,30.26,10.0,Calm,Calm,-,N/A,,Overcast,0,2012-11-26 08:56:00